Time;durP1;ratioP1;P1;durP2;ratioP2;P2;SDS_P1;SDS_P2;PMS_P1;PMS_P2;Temp;Humidity;BMP_temperature;BMP_pressure;BME280_temperature;BME280_humidity;BME280_pressure;Samples;Min_cycle;Max_cycle;Signal;HPM_P1;HPM_P2
2021/06/05 13:37:24;;;;;;;1.10;0.75;;;31.00;31.00;;;;;;6251141;22;20807;31
2021/06/05 13:40:52;;;;;;;0.90;0.88;;;30.80;30.50;;;;;;6223913;23;20023;-95
2021/06/05 13:44:17;;;;;;;1.95;0.45;;;30.90;30.00;;;;;;6223390;23;20004;-95
2021/06/05 13:54:59;;;;;;;0.75;0.52;;;31.70;30.10;;;;;;6252759;23;20084;-95
2021/06/05 14:02:47;;;;;;;;;;;;;;;;;;;;;
2021/06/05 14:09:19;;;;;;;;;;;;;;;;;;;;;
2021/06/05 14:16:00;;;;;;;0.75;0.57;;;31.60;28.00;;;;;;6152118;23;20080;-96
2021/06/05 14:19:18;;;;;;;0.47;0.32;;;31.40;28.40;;;;;;6186576;23;20012;-96
2021/06/05 14:25:28;;;;;;;0.45;0.20;;;31.80;29.00;;;;;;6221668;23;20515;-96
2021/06/05 14:31:33;;;;;;;0.40;0.40;;;32.20;27.50;;;;;;6220449;23;20062;-96
2021/06/05 14:37:48;;;;;;;;;;;;;;;;;;;;;
2021/06/05 14:40:25;;;;;;;1.42;0.30;;;32.00;27.90;;;;;;6222394;23;20047;-95
2021/06/05 14:43:26;;;;;;;1.92;0.55;;;31.90;27.40;;;;;;6196565;23;20005;-96
2021/06/05 14:49:39;;;;;;;1.67;0.60;;;31.80;27.70;;;;;;6186255;23;20092;-96
2021/06/05 14:56:29;;;;;;;0.10;0.10;;;32.10;27.60;;;;;;6188692;23;20079;-96
2021/06/05 15:02:28;;;;;;;0.50;0.03;;;32.00;27.50;;;;;;6165748;23;20088;-96
2021/06/05 15:04:57;;;;;;;1.17;0.45;;;32.00;26.90;;;;;;6131564;23;20009;-95
2021/06/05 15:07:23;;;;;;;2.63;0.55;;;32.10;26.80;;;;;;6132217;23;20010;-95
2021/06/05 15:09:48;;;;;;;0.43;0.43;;;32.10;27.40;;;;;;6131329;23;20033;-94
2021/06/05 15:12:14;;;;;;;1.92;0.52;;;32.10;27.50;;;;;;6130722;23;20028;-96
2021/06/05 15:15:35;;;;;;;1.55;0.30;;;32.20;27.70;;;;;;6130627;23;20010;-96
2021/06/05 15:21:36;;;;;;;1.65;0.25;;;32.30;27.80;;;;;;6156264;23;20367;-95
2021/06/05 15:24:06;;;;;;;1.65;0.68;;;32.30;27.60;;;;;;6180603;23;20096;-94
2021/06/05 15:26:33;;;;;;;0.68;0.15;;;32.20;27.60;;;;;;6155313;23;20009;-95
2021/06/05 15:32:34;;;;;;;0.40;0.40;;;32.30;28.10;;;;;;6216981;23;20075;-93
2021/06/05 15:38:51;;;;;;;0.75;0.40;;;32.40;28.10;;;;;;6217349;23;20023;-95
2021/06/05 15:49:17;;;;;;;1.65;0.25;;;32.20;28.50;;;;;;6222071;23;20447;-96
2021/06/05 15:55:20;;;;;;;0.93;0.43;;;31.90;28.70;;;;;;6187759;23;20447;-95
2021/06/05 15:57:54;;;;;;;0.73;0.20;;;32.10;29.40;;;;;;6214153;23;20428;-96
2021/06/05 16:04:47;;;;;;;2.28;0.32;;;32.10;29.10;;;;;;6187905;23;20015;-96
2021/06/05 16:10:53;;;;;;;3.47;1.27;;;32.10;29.80;;;;;;6187288;23;20467;-96
2021/06/05 16:13:46;;;;;;;4.30;0.80;;;31.90;30.00;;;;;;6212521;23;20066;-96
2021/06/05 16:19:47;;;;;;;11.10;0.65;;;31.80;30.20;;;;;;6219302;23;20071;-95
2021/06/05 16:25:48;;;;;;;0.75;0.65;;;31.50;30.80;;;;;;6218923;23;20015;-95
2021/06/05 16:31:57;;;;;;;1.35;0.70;;;31.30;31.30;;;;;;6219168;23;20135;-95
2021/06/05 16:34:25;;;;;;;1.25;0.93;;;31.20;31.40;;;;;;6192959;23;20008;-95
2021/06/05 16:40:27;;;;;;;3.00;0.88;;;31.00;32.10;;;;;;6218554;23;20074;-95
2021/06/05 16:43:56;;;;;;;3.13;0.88;;;30.80;32.10;;;;;;6242764;23;20432;-95
2021/06/05 16:49:56;;;;;;;2.90;1.50;;;30.60;32.60;;;;;;6219061;23;20444;-96
2021/06/05 16:53:18;;;;;;;0.90;0.90;;;30.40;32.50;;;;;;6193144;23;20009;-96
2021/06/05 16:59:20;;;;;;;0.88;0.40;;;30.10;33.50;;;;;;6218836;23;20020;-96
2021/06/05 17:06:17;;;;;;;3.90;0.90;;;29.70;33.60;;;;;;6219120;23;20012;-95
2021/06/05 17:09:43;;;;;;;1.95;0.95;;;29.30;34.00;;;;;;6242699;23;20013;-96
2021/06/05 17:12:10;;;;;;;5.47;0.60;;;28.80;34.30;;;;;;6243391;23;20008;-95
